Accueil
METAR-TAF:

METAR-TAF

Aéroports :

Le Helder, Pays-Bas

latitude: 52-55N, longitude: 004-47E, altitude: 0 m

Observation

Le bulletin a été fait il y a 38 minutes, à 22:25 UTC
Vent 5 kt de ouest/nord-ouest
Température 15°C
Humidité 77%
Pression 1023 hPa
Visibilité 10 km ou plus
Nuages fragmentés à une hauteur de 2500 ft
Nuages fragmentés à une hauteur de 2800 ft

METAR: EHKD 202225Z AUTO 29005KT 9999 BKN025 BKN028 15/11 Q1023 BLU

Heure: 01:03 (23:03 UTC)

Prévision

Le bulletin a été fait il y a 6 heures et 17 minutes, à 16:46 UTC
Prévision valable du 20 à 17 UTC au 21 à 05 UTC
Vent 15 kt de ouest
Visibilité 10 km ou plus
Quelques nuages à une hauteur de 2500 ft
Nuages épars à une hauteur de 3000 ft

TAF: EHKD 201646Z 2017/2105 27015KT 9999 FEW025 SCT030

Observations et prévisions météorologiques de plus de 4000 aéroports (messages METAR et TAF).

Les stations disponibles sont représentées par des disques jaunes et rouges sur la carte.

Passer la souris dessus pour voir le nom de la station.

Cliquer dessus pour voir les observations et prévisions météorologiques.

Pour changer de carte: cliquez sur les boutons verts avec une croix noire pour zoomer, sur le bouton vert avec un tiret pour effectuer un zoom arrière, ou sur les flèches vertes pour les cartes adjacentes.


METAR-TAF: